Aérodrome :
LOGIN :

S'inscrire | Disclaimer

   EN    FR    IT 

 










Légende :    VFR   VFR Marginal   IFR   IFR Intensif   IFR Très Intensif
Visi : 
Plafond : 
>= 8 km
>= 3000ft
5 à 8 km
1000 à 3000 ft
1500m à 5 km
500 à 1000 ft
800 à 1500m
200 à 500 ft
< 800m
< 200 ft
Symboles :   Orages  Brouillard  Fortes neiges  Fortes précipitations  Vent > 20 kt
SIGMETs :   Divers  Orages  Givrage  Turbulence  Onde Orograph.  Cendres Volcan.






- Altitude de l'aérodrome : 322 ft


LHSN - Szolnok

DERNIER METAR :
  • 280745Z 17010KT 0300 R20/0800U -RA FG OVC002 01/01 Q1010 TEMPO 0600 FG RMK RED

METARs EXPIRÉS :
  • 280715Z 17012KT 0200 R20/0550U -RA FG OVC002 01/01 Q1010 NOSIG RMK RED
  • 280645Z 17010KT 0200 R20/0700D -DZ FG OVC002 01/01 Q1011 NOSIG RMK RED
  • 280615Z 16010KT 0200 R20/0900D -DZ FG OVC002 01/01 Q1011 NOSIG RMK RED
  • 280545Z 16010KT 0200 R20/0900V1100D -DZ FG OVC002 01/01 Q1011 NOSIG RMK RED
  • 280515Z 18010KT 0200 R20/0900V1200U -DZ FG OVC002 01/01 Q1012 NOSIG RMK RED
  • 280445Z 16010KT 0200 R20/0750U FG OVC002 00/00 Q1012 NOSIG RMK RED

TAF AMD TAF LHSN
Valide du 28 à 06h jusqu'au 28 à 15h UTC


280629Z 2806/2815 18010KT 0350 FG -DZ OVC002
TEMPO 2806/2808 0150 FZFG -FZDZ VV001
BECMG 2808/2811 17010G20KT 5000 -RA BR BKN008 OVC030



MET'MAP, la Météo Aéronautique d'un coup d'oeil ! - Copyright ORBIFLY Décembre 2007 - Disclaimer

ORBIFLY MET'MAP TEAM :

Programmation & Développement : Alexandra Zaïnal
Sur une idée originale de : Baudouin d'Aumeries
Assistance à la programmation : Marc-Olivier Méhu
Soutien technique & logistique : Manuel Goepfert

Contact : metmap@orbifly.com




SOURCES & CREDITS :

   NOAA